»·PEaware :: LXJ505 KALM-0E0

LXJ505 :: KALM-0E0

FLIGHT INFORMATION

Flight Status: Arrived
Operator: Unknown
More flights by this operator :: More flights under this callsign
Pilot: Michael D. (17574)
Aircraft: BOMBARDIER BD-100 CHALLENGER 300
(CL30)
More flights by this aircraft type
Origin: KALM Alamogordo-White Sands Regl
United States
Destination: 0E0 Moriarty
United States
More flights between these airports :: More routes between these airports
Route: +CORONA2 CNX OTO
File this flight plan on PilotEdge
Remarks: "FLEX JET 505"
Altitude:
(Current/Filed)
30,000ft
Speed:
(Current/Filed)
400kts
Departed: 21-Feb-18 12:15 PM
Arrived: 21-Feb-18 12:48 PM
Distance/Time
Traveled:
129nm/0:32
Distance/Time
To Go:
Arrived

Flight Plot

Page will automatically refresh every two minutes.

Flight plan parsing failed; only flown route is shown


Map Options




Map Legend


Flown Route
Filed Route
Departure Airport
Arrival Airport
Navaid (VOR, NDB)
Fix

Horizontal Profiles

Position Reports

Time Latitude Longitude Heading Altitude Ground
Speed
21-Feb-18 11:55 32.838762 -105.995010 44 4160ft 0kts
21-Feb-18 11:56 32.838762 -105.995010 44 4160ft 0kts
21-Feb-18 11:57 32.838762 -105.995010 44 4160ft 0kts
21-Feb-18 12:01 32.842430 -105.990514 132 4160ft 0kts
21-Feb-18 12:02 32.842430 -105.990514 132 4160ft 0kts
21-Feb-18 12:03 32.842430 -105.990514 132 4160ft 0kts
21-Feb-18 12:04 32.842430 -105.990514 132 4160ft 0kts
21-Feb-18 12:05 32.842430 -105.990514 132 4160ft 0kts
21-Feb-18 12:06 32.842430 -105.990514 132 4160ft 0kts
21-Feb-18 12:07 32.842430 -105.990514 132 4160ft 0kts
21-Feb-18 12:08 32.842430 -105.990514 132 4160ft 0kts
21-Feb-18 12:09 32.842430 -105.990514 132 4160ft 0kts
21-Feb-18 12:10 32.842430 -105.990514 132 4160ft 0kts
21-Feb-18 12:11 32.842430 -105.990514 132 4160ft 0kts
21-Feb-18 12:12 32.842430 -105.990514 132 4160ft 0kts
21-Feb-18 12:13 32.842430 -105.990514 132 4160ft 0kts
21-Feb-18 12:14 32.842430 -105.990514 132 4160ft 0kts
21-Feb-18 12:15 32.842430 -105.990514 132 4160ft 0kts
21-Feb-18 12:16 32.841471 -105.990568 138 4160ft 0kts
21-Feb-18 12:17 32.839969 -105.991731 225 4160ft 14kts
21-Feb-18 12:18 32.835191 -105.997485 224 4160ft 33kts
21-Feb-18 12:19 32.834008 -105.998925 222 4160ft 0kts
21-Feb-18 12:20 32.833836 -105.999052 197 4160ft 8kts
21-Feb-18 12:21 32.829647 -106.004184 215 4160ft 14kts
21-Feb-18 12:22 32.841366 -105.989187 45 4393ft 179kts
21-Feb-18 12:23 32.905970 -105.974792 354 8079ft 297kts
21-Feb-18 12:24 32.991067 -105.979169 355 13251ft 324kts
21-Feb-18 12:25 33.083952 -105.980351 356 17423ft 350kts
21-Feb-18 12:26 33.183702 -105.980347 355 21040ft 373kts
21-Feb-18 12:27 33.289624 -105.979826 355 24156ft 393kts
21-Feb-18 12:28 33.406709 -105.979241 356 25247ft 457kts
21-Feb-18 12:29 33.535306 -105.978429 355 27534ft 473kts
21-Feb-18 12:30 33.668001 -105.973092 11 29714ft 490kts
21-Feb-18 12:31 33.801484 -105.921339 16 30183ft 526kts
21-Feb-18 12:32 33.938980 -105.863086 16 30169ft 523kts
21-Feb-18 12:33 34.075853 -105.804200 16 30187ft 523kts
21-Feb-18 12:34 34.200645 -105.750232 16 30210ft 520kts
21-Feb-18 12:35 34.332210 -105.695493 5 28243ft 513kts
21-Feb-18 12:36 34.468107 -105.719335 340 25380ft 478kts
21-Feb-18 12:37 34.589056 -105.759643 338 22797ft 428kts
21-Feb-18 12:38 34.697882 -105.798683 338 20505ft 393kts
21-Feb-18 12:39 34.798390 -105.835339 338 18415ft 365kts
21-Feb-18 12:40 34.891804 -105.869605 338 16497ft 341kts
21-Feb-18 12:41 34.979471 -105.901874 339 14718ft 320kts
21-Feb-18 12:42 35.064007 -105.912073 31 13181ft 297kts
21-Feb-18 12:43 35.074956 -105.836038 141 13188ft 208kts
21-Feb-18 12:44 35.031443 -105.798833 153 12524ft 203kts
21-Feb-18 12:45 34.973009 -105.768587 145 10001ft 255kts
21-Feb-18 12:46 34.967399 -105.684319 86 8873ft 236kts
21-Feb-18 12:47 35.006429 -105.670245 279 8892ft 145kts
21-Feb-18 12:48 34.987138 -105.707950 259 8910ft 168kts
21-Feb-18 12:49 34.986011 -105.767973 262 8648ft 180kts
21-Feb-18 12:50 34.984893 -105.828850 262 8294ft 173kts
21-Feb-18 12:51 34.985771 -105.880773 264 8293ft 152kts
21-Feb-18 12:52 34.986160 -105.930971 260 7616ft 137kts
21-Feb-18 12:53 34.985390 -105.979662 267 6551ft 145kts
21-Feb-18 12:54 34.985564 -106.016087 270 6190ft 52kts
21-Feb-18 12:55 34.985049 -106.020539 89 6212ft 0kts
21-Feb-18 12:56 34.985049 -106.020539 89 6212ft 0kts
21-Feb-18 12:57 34.985049 -106.020539 89 6212ft 0kts
21-Feb-18 12:58 34.985049 -106.020539 89 6212ft 0kts
21-Feb-18 12:59 34.985049 -106.020539 89 6212ft 0kts
21-Feb-18 13:00 34.985049 -106.020539 89 6212ft 0kts
21-Feb-18 13:01 34.985049 -106.020539 89 6212ft 0kts

Navigation Log

Ident Type
Flight plan parsing failed, navigation log unavailable